sensor_id;sensor_type;location;lat;lon;timestamp;temperature;humidity
68801;SHT31;55784;50.734;7.086;2022-10-31T00:01:22;12.50;93.48
68801;SHT31;55784;50.734;7.086;2022-10-31T00:03:48;12.47;93.48
68801;SHT31;55784;50.734;7.086;2022-10-31T00:06:14;12.44;93.55
68801;SHT31;55784;50.734;7.086;2022-10-31T00:08:40;12.42;93.67
68801;SHT31;55784;50.734;7.086;2022-10-31T00:11:09;12.44;93.75
68801;SHT31;55784;50.734;7.086;2022-10-31T00:13:34;12.46;93.81
68801;SHT31;55784;50.734;7.086;2022-10-31T00:16:00;12.46;93.74
68801;SHT31;55784;50.734;7.086;2022-10-31T00:18:25;12.47;93.68
68801;SHT31;55784;50.734;7.086;2022-10-31T00:21:01;12.43;93.59
68801;SHT31;55784;50.734;7.086;2022-10-31T00:23:26;12.49;93.65
68801;SHT31;55784;50.734;7.086;2022-10-31T00:25:51;12.47;93.57
68801;SHT31;55784;50.734;7.086;2022-10-31T00:28:17;12.49;93.44
68801;SHT31;55784;50.734;7.086;2022-10-31T00:30:42;12.47;93.43
68801;SHT31;55784;50.734;7.086;2022-10-31T00:33:07;12.52;93.42
68801;SHT31;55784;50.734;7.086;2022-10-31T00:35:33;12.49;93.31
68801;SHT31;55784;50.734;7.086;2022-10-31T00:37:58;12.47;93.34
68801;SHT31;55784;50.734;7.086;2022-10-31T00:40:23;12.46;93.37
68801;SHT31;55784;50.734;7.086;2022-10-31T00:42:49;12.47;93.38
68801;SHT31;55784;50.734;7.086;2022-10-31T00:45:14;12.47;93.37
68801;SHT31;55784;50.734;7.086;2022-10-31T00:47:39;12.49;93.38
68801;SHT31;55784;50.734;7.086;2022-10-31T00:50:05;12.49;93.44
68801;SHT31;55784;50.734;7.086;2022-10-31T00:52:30;12.54;93.32
68801;SHT31;55784;50.734;7.086;2022-10-31T00:54:56;12.50;93.23
68801;SHT31;55784;50.734;7.086;2022-10-31T00:57:21;12.50;93.17
68801;SHT31;55784;50.734;7.086;2022-10-31T00:59:46;12.44;93.09
68801;SHT31;55784;50.734;7.086;2022-10-31T01:02:12;12.44;93.04
68801;SHT31;55784;50.734;7.086;2022-10-31T01:04:37;12.46;92.95
68801;SHT31;55784;50.734;7.086;2022-10-31T01:07:02;12.47;92.90
68801;SHT31;55784;50.734;7.086;2022-10-31T01:09:28;12.43;92.80
68801;SHT31;55784;50.734;7.086;2022-10-31T01:11:53;12.43;92.88
68801;SHT31;55784;50.734;7.086;2022-10-31T01:14:18;12.44;93.08
68801;SHT31;55784;50.734;7.086;2022-10-31T01:16:43;12.44;93.15
68801;SHT31;55784;50.734;7.086;2022-10-31T01:19:09;12.46;93.43
68801;SHT31;55784;50.734;7.086;2022-10-31T01:21:34;12.44;93.27
68801;SHT31;55784;50.734;7.086;2022-10-31T01:23:59;12.44;93.34
68801;SHT31;55784;50.734;7.086;2022-10-31T01:26:29;12.49;93.47
68801;SHT31;55784;50.734;7.086;2022-10-31T01:29:00;12.53;93.59
68801;SHT31;55784;50.734;7.086;2022-10-31T01:31:32;12.53;93.65
68801;SHT31;55784;50.734;7.086;2022-10-31T01:33:58;12.54;93.67
68801;SHT31;55784;50.734;7.086;2022-10-31T01:36:30;12.52;93.63
68801;SHT31;55784;50.734;7.086;2022-10-31T01:38:58;12.50;93.70
68801;SHT31;55784;50.734;7.086;2022-10-31T01:41:27;12.52;93.84
68801;SHT31;55784;50.734;7.086;2022-10-31T01:43:57;12.50;93.78
68801;SHT31;55784;50.734;7.086;2022-10-31T01:49:13;12.50;93.32
68801;SHT31;55784;50.734;7.086;2022-10-31T01:51:45;12.47;93.23
68801;SHT31;55784;50.734;7.086;2022-10-31T01:54:15;12.53;93.04
68801;SHT31;55784;50.734;7.086;2022-10-31T01:56:44;12.50;92.91
68801;SHT31;55784;50.734;7.086;2022-10-31T01:59:15;12.52;92.75
68801;SHT31;55784;50.734;7.086;2022-10-31T02:01:42;12.56;92.53
68801;SHT31;55784;50.734;7.086;2022-10-31T02:04:07;12.54;92.44
68801;SHT31;55784;50.734;7.086;2022-10-31T02:06:34;12.50;92.47
68801;SHT31;55784;50.734;7.086;2022-10-31T02:09:03;12.49;92.52
68801;SHT31;55784;50.734;7.086;2022-10-31T02:11:29;12.49;92.56
68801;SHT31;55784;50.734;7.086;2022-10-31T02:13:54;12.49;92.55
68801;SHT31;55784;50.734;7.086;2022-10-31T02:16:20;12.49;92.56
68801;SHT31;55784;50.734;7.086;2022-10-31T02:18:45;12.47;92.59
68801;SHT31;55784;50.734;7.086;2022-10-31T02:21:19;12.47;92.57
68801;SHT31;55784;50.734;7.086;2022-10-31T02:27:01;12.49;92.74
68801;SHT31;55784;50.734;7.086;2022-10-31T02:30:06;12.57;92.45
68801;SHT31;55784;50.734;7.086;2022-10-31T02:40:25;12.44;92.77
68801;SHT31;55784;50.734;7.086;2022-10-31T02:48:16;12.32;93.05
68801;SHT31;55784;50.734;7.086;2022-10-31T02:50:48;12.32;93.13
68801;SHT31;55784;50.734;7.086;2022-10-31T02:53:16;12.29;93.33
68801;SHT31;55784;50.734;7.086;2022-10-31T02:55:56;12.28;93.45
68801;SHT31;55784;50.734;7.086;2022-10-31T02:58:26;12.26;93.62
68801;SHT31;55784;50.734;7.086;2022-10-31T03:01:10;12.26;93.40
68801;SHT31;55784;50.734;7.086;2022-10-31T03:06:43;12.33;93.21
68801;SHT31;55784;50.734;7.086;2022-10-31T03:09:20;12.37;93.08
68801;SHT31;55784;50.734;7.086;2022-10-31T03:11:56;12.39;92.94
68801;SHT31;55784;50.734;7.086;2022-10-31T03:17:05;12.47;92.70
68801;SHT31;55784;50.734;7.086;2022-10-31T03:19:39;12.44;92.66
68801;SHT31;55784;50.734;7.086;2022-10-31T03:22:20;12.47;92.59
68801;SHT31;55784;50.734;7.086;2022-10-31T03:24:47;12.53;92.42
68801;SHT31;55784;50.734;7.086;2022-10-31T03:27:19;12.49;92.34
68801;SHT31;55784;50.734;7.086;2022-10-31T03:29:46;12.50;92.36
68801;SHT31;55784;50.734;7.086;2022-10-31T03:32:16;12.43;92.36
68801;SHT31;55784;50.734;7.086;2022-10-31T03:34:44;12.42;92.49
68801;SHT31;55784;50.734;7.086;2022-10-31T03:37:11;12.37;92.79
68801;SHT31;55784;50.734;7.086;2022-10-31T03:39:40;12.34;92.84
68801;SHT31;55784;50.734;7.086;2022-10-31T03:42:09;12.30;92.98
68801;SHT31;55784;50.734;7.086;2022-10-31T03:44:38;12.26;93.03
68801;SHT31;55784;50.734;7.086;2022-10-31T03:47:06;12.25;93.17
68801;SHT31;55784;50.734;7.086;2022-10-31T03:49:32;12.22;93.22
68801;SHT31;55784;50.734;7.086;2022-10-31T03:52:19;12.19;93.25
68801;SHT31;55784;50.734;7.086;2022-10-31T03:54:57;12.12;93.39
68801;SHT31;55784;50.734;7.086;2022-10-31T03:57:45;12.11;93.83
68801;SHT31;55784;50.734;7.086;2022-10-31T04:00:14;12.06;93.88
68801;SHT31;55784;50.734;7.086;2022-10-31T04:02:44;12.05;93.78
68801;SHT31;55784;50.734;7.086;2022-10-31T04:05:11;12.03;93.80
68801;SHT31;55784;50.734;7.086;2022-10-31T04:07:41;12.06;93.87
68801;SHT31;55784;50.734;7.086;2022-10-31T04:10:11;12.05;93.85
68801;SHT31;55784;50.734;7.086;2022-10-31T04:12:39;11.98;94.12
68801;SHT31;55784;50.734;7.086;2022-10-31T04:15:06;11.92;94.18
68801;SHT31;55784;50.734;7.086;2022-10-31T04:17:35;11.91;94.51
68801;SHT31;55784;50.734;7.086;2022-10-31T04:20:01;11.88;94.64
68801;SHT31;55784;50.734;7.086;2022-10-31T04:22:26;11.89;94.68
68801;SHT31;55784;50.734;7.086;2022-10-31T04:24:51;11.83;94.79
68801;SHT31;55784;50.734;7.086;2022-10-31T04:27:17;11.83;94.77
68801;SHT31;55784;50.734;7.086;2022-10-31T04:29:42;11.88;94.76
68801;SHT31;55784;50.734;7.086;2022-10-31T04:32:07;11.92;94.80
68801;SHT31;55784;50.734;7.086;2022-10-31T04:34:32;11.88;94.77
68801;SHT31;55784;50.734;7.086;2022-10-31T04:36:58;11.88;94.81
68801;SHT31;55784;50.734;7.086;2022-10-31T04:39:23;11.83;94.69
68801;SHT31;55784;50.734;7.086;2022-10-31T04:41:48;11.82;94.76
68801;SHT31;55784;50.734;7.086;2022-10-31T04:44:15;11.77;94.78
68801;SHT31;55784;50.734;7.086;2022-10-31T04:46:40;11.74;94.93
68801;SHT31;55784;50.734;7.086;2022-10-31T04:49:06;11.70;94.93
68801;SHT31;55784;50.734;7.086;2022-10-31T04:51:31;11.67;95.25
68801;SHT31;55784;50.734;7.086;2022-10-31T04:53:56;11.62;95.23
68801;SHT31;55784;50.734;7.086;2022-10-31T04:56:21;11.64;95.34
68801;SHT31;55784;50.734;7.086;2022-10-31T04:58:47;11.65;95.37
68801;SHT31;55784;50.734;7.086;2022-10-31T05:01:12;11.65;95.41
68801;SHT31;55784;50.734;7.086;2022-10-31T05:03:37;11.68;95.50
68801;SHT31;55784;50.734;7.086;2022-10-31T05:06:05;11.68;95.67
68801;SHT31;55784;50.734;7.086;2022-10-31T05:08:30;11.72;95.89
68801;SHT31;55784;50.734;7.086;2022-10-31T05:11:00;11.75;95.91
68801;SHT31;55784;50.734;7.086;2022-10-31T05:13:26;11.75;95.88
68801;SHT31;55784;50.734;7.086;2022-10-31T05:15:51;11.72;96.02
68801;SHT31;55784;50.734;7.086;2022-10-31T05:18:16;11.67;96.10
68801;SHT31;55784;50.734;7.086;2022-10-31T05:20:41;11.64;96.22
68801;SHT31;55784;50.734;7.086;2022-10-31T05:23:07;11.60;96.59
68801;SHT31;55784;50.734;7.086;2022-10-31T05:25:32;11.64;96.57
68801;SHT31;55784;50.734;7.086;2022-10-31T05:27:57;11.62;96.68
68801;SHT31;55784;50.734;7.086;2022-10-31T05:30:26;11.60;96.64
68801;SHT31;55784;50.734;7.086;2022-10-31T05:32:52;11.55;96.58
68801;SHT31;55784;50.734;7.086;2022-10-31T05:35:22;11.55;96.56
68801;SHT31;55784;50.734;7.086;2022-10-31T05:37:48;11.52;96.52
68801;SHT31;55784;50.734;7.086;2022-10-31T05:40:16;11.54;96.48
68801;SHT31;55784;50.734;7.086;2022-10-31T05:42:42;11.54;96.42
68801;SHT31;55784;50.734;7.086;2022-10-31T05:45:09;11.51;96.29
68801;SHT31;55784;50.734;7.086;2022-10-31T05:47:35;11.50;96.20
68801;SHT31;55784;50.734;7.086;2022-10-31T05:50:00;11.45;96.34
68801;SHT31;55784;50.734;7.086;2022-10-31T05:52:26;11.45;96.21
68801;SHT31;55784;50.734;7.086;2022-10-31T05:54:51;11.45;96.14
68801;SHT31;55784;50.734;7.086;2022-10-31T05:57:16;11.42;96.18
68801;SHT31;55784;50.734;7.086;2022-10-31T05:59:41;11.41;96.28
68801;SHT31;55784;50.734;7.086;2022-10-31T06:02:07;11.40;96.25
68801;SHT31;55784;50.734;7.086;2022-10-31T06:04:32;11.44;96.17
68801;SHT31;55784;50.734;7.086;2022-10-31T06:06:57;11.42;96.08
68801;SHT31;55784;50.734;7.086;2022-10-31T06:09:23;11.47;96.06
68801;SHT31;55784;50.734;7.086;2022-10-31T06:11:48;11.48;95.86
68801;SHT31;55784;50.734;7.086;2022-10-31T06:14:13;11.45;95.81
68801;SHT31;55784;50.734;7.086;2022-10-31T06:16:39;11.40;95.81
68801;SHT31;55784;50.734;7.086;2022-10-31T06:19:04;11.38;95.92
68801;SHT31;55784;50.734;7.086;2022-10-31T06:21:29;11.40;95.98
68801;SHT31;55784;50.734;7.086;2022-10-31T06:24:01;11.42;96.02
68801;SHT31;55784;50.734;7.086;2022-10-31T06:26:26;11.38;96.01
68801;SHT31;55784;50.734;7.086;2022-10-31T06:29:03;11.45;95.93
68801;SHT31;55784;50.734;7.086;2022-10-31T06:31:28;11.42;95.99
68801;SHT31;55784;50.734;7.086;2022-10-31T06:33:57;11.42;95.93
68801;SHT31;55784;50.734;7.086;2022-10-31T06:36:22;11.44;96.04
68801;SHT31;55784;50.734;7.086;2022-10-31T06:38:50;11.47;95.98
68801;SHT31;55784;50.734;7.086;2022-10-31T06:41:19;11.54;95.82
68801;SHT31;55784;50.734;7.086;2022-10-31T06:43:57;11.52;95.84
68801;SHT31;55784;50.734;7.086;2022-10-31T06:49:06;11.64;95.85
68801;SHT31;55784;50.734;7.086;2022-10-31T06:51:37;11.72;95.80
68801;SHT31;55784;50.734;7.086;2022-10-31T06:54:22;11.85;95.41
68801;SHT31;55784;50.734;7.086;2022-10-31T06:56:50;11.91;95.28
68801;SHT31;55784;50.734;7.086;2022-10-31T07:03:11;12.05;94.65
68801;SHT31;55784;50.734;7.086;2022-10-31T07:05:37;12.12;94.47
68801;SHT31;55784;50.734;7.086;2022-10-31T07:08:05;12.12;94.40
68801;SHT31;55784;50.734;7.086;2022-10-31T07:10:32;12.18;94.15
68801;SHT31;55784;50.734;7.086;2022-10-31T07:13:00;12.23;93.99
68801;SHT31;55784;50.734;7.086;2022-10-31T07:15:27;12.23;93.92
68801;SHT31;55784;50.734;7.086;2022-10-31T07:17:52;12.29;93.78
68801;SHT31;55784;50.734;7.086;2022-10-31T07:20:18;12.33;93.69
68801;SHT31;55784;50.734;7.086;2022-10-31T07:22:44;12.40;93.43
68801;SHT31;55784;50.734;7.086;2022-10-31T07:25:10;12.42;93.33
68801;SHT31;55784;50.734;7.086;2022-10-31T07:27:37;12.42;93.26
68801;SHT31;55784;50.734;7.086;2022-10-31T07:30:03;12.43;93.11
68801;SHT31;55784;50.734;7.086;2022-10-31T07:32:40;12.53;93.06
68801;SHT31;55784;50.734;7.086;2022-10-31T07:35:10;12.60;92.75
68801;SHT31;55784;50.734;7.086;2022-10-31T07:37:36;12.64;92.57
68801;SHT31;55784;50.734;7.086;2022-10-31T07:40:03;12.66;92.27
68801;SHT31;55784;50.734;7.086;2022-10-31T07:42:28;12.67;92.23
68801;SHT31;55784;50.734;7.086;2022-10-31T07:44:53;12.79;92.00
68801;SHT31;55784;50.734;7.086;2022-10-31T07:47:18;12.81;91.96
68801;SHT31;55784;50.734;7.086;2022-10-31T07:49:44;12.90;91.91
68801;SHT31;55784;50.734;7.086;2022-10-31T07:52:09;12.95;91.73
68801;SHT31;55784;50.734;7.086;2022-10-31T07:54:34;13.04;91.60
68801;SHT31;55784;50.734;7.086;2022-10-31T07:57:00;13.10;91.46
68801;SHT31;55784;50.734;7.086;2022-10-31T07:59:25;13.10;91.19
68801;SHT31;55784;50.734;7.086;2022-10-31T08:01:52;13.18;91.09
68801;SHT31;55784;50.734;7.086;2022-10-31T08:04:17;13.24;90.79
68801;SHT31;55784;50.734;7.086;2022-10-31T08:06:43;13.27;90.58
68801;SHT31;55784;50.734;7.086;2022-10-31T08:09:08;13.32;90.56
68801;SHT31;55784;50.734;7.086;2022-10-31T08:11:33;13.37;90.37
68801;SHT31;55784;50.734;7.086;2022-10-31T08:13:59;13.42;90.30
68801;SHT31;55784;50.734;7.086;2022-10-31T08:16:24;13.45;90.08
68801;SHT31;55784;50.734;7.086;2022-10-31T08:18:49;13.54;90.06
68801;SHT31;55784;50.734;7.086;2022-10-31T08:21:14;13.57;89.83
68801;SHT31;55784;50.734;7.086;2022-10-31T08:23:40;13.57;89.78
68801;SHT31;55784;50.734;7.086;2022-10-31T08:26:05;13.63;89.39
68801;SHT31;55784;50.734;7.086;2022-10-31T08:28:31;13.63;89.39
68801;SHT31;55784;50.734;7.086;2022-10-31T08:30:57;13.73;89.32
68801;SHT31;55784;50.734;7.086;2022-10-31T08:33:22;13.73;89.07
68801;SHT31;55784;50.734;7.086;2022-10-31T08:35:48;13.82;89.08
68801;SHT31;55784;50.734;7.086;2022-10-31T08:38:14;13.87;88.84
68801;SHT31;55784;50.734;7.086;2022-10-31T08:40:39;13.95;88.60
68801;SHT31;55784;50.734;7.086;2022-10-31T08:43:13;13.99;88.50
68801;SHT31;55784;50.734;7.086;2022-10-31T08:45:39;14.06;88.24
68801;SHT31;55784;50.734;7.086;2022-10-31T08:48:09;14.10;88.08
68801;SHT31;55784;50.734;7.086;2022-10-31T08:50:35;14.19;87.65
68801;SHT31;55784;50.734;7.086;2022-10-31T08:53:03;14.26;87.60
68801;SHT31;55784;50.734;7.086;2022-10-31T08:55:28;14.27;87.59
68801;SHT31;55784;50.734;7.086;2022-10-31T08:57:55;14.40;87.35
68801;SHT31;55784;50.734;7.086;2022-10-31T09:00:21;14.48;86.79
68801;SHT31;55784;50.734;7.086;2022-10-31T09:02:47;14.60;86.49
68801;SHT31;55784;50.734;7.086;2022-10-31T09:05:12;14.67;86.35
68801;SHT31;55784;50.734;7.086;2022-10-31T09:07:37;14.77;85.89
68801;SHT31;55784;50.734;7.086;2022-10-31T09:10:03;14.88;85.63
68801;SHT31;55784;50.734;7.086;2022-10-31T09:12:28;14.89;85.45
68801;SHT31;55784;50.734;7.086;2022-10-31T09:14:53;14.99;85.39
68801;SHT31;55784;50.734;7.086;2022-10-31T09:17:19;15.12;84.43
68801;SHT31;55784;50.734;7.086;2022-10-31T09:19:44;15.16;84.52
68801;SHT31;55784;50.734;7.086;2022-10-31T09:22:09;15.26;84.38
68801;SHT31;55784;50.734;7.086;2022-10-31T09:24:35;15.42;83.65
68801;SHT31;55784;50.734;7.086;2022-10-31T09:27:03;15.47;83.56
68801;SHT31;55784;50.734;7.086;2022-10-31T09:29:28;15.59;82.95
68801;SHT31;55784;50.734;7.086;2022-10-31T09:31:56;15.57;82.65
68801;SHT31;55784;50.734;7.086;2022-10-31T09:34:21;15.57;82.62
68801;SHT31;55784;50.734;7.086;2022-10-31T09:36:46;15.67;82.65
68801;SHT31;55784;50.734;7.086;2022-10-31T09:39:11;15.74;81.84
68801;SHT31;55784;50.734;7.086;2022-10-31T09:41:47;15.86;81.28
68801;SHT31;55784;50.734;7.086;2022-10-31T09:44:28;15.89;81.24
68801;SHT31;55784;50.734;7.086;2022-10-31T09:50:20;15.94;80.83
68801;SHT31;55784;50.734;7.086;2022-10-31T09:52:54;15.82;81.08
68801;SHT31;55784;50.734;7.086;2022-10-31T09:55:37;15.80;81.43
68801;SHT31;55784;50.734;7.086;2022-10-31T09:58:04;15.77;81.42
68801;SHT31;55784;50.734;7.086;2022-10-31T10:00:30;15.74;81.44
68801;SHT31;55784;50.734;7.086;2022-10-31T10:03:27;15.69;81.61
68801;SHT31;55784;50.734;7.086;2022-10-31T10:05:54;15.69;81.81
68801;SHT31;55784;50.734;7.086;2022-10-31T10:08:26;15.65;82.10
68801;SHT31;55784;50.734;7.086;2022-10-31T10:11:03;15.67;82.13
68801;SHT31;55784;50.734;7.086;2022-10-31T10:19:02;15.65;82.14
68801;SHT31;55784;50.734;7.086;2022-10-31T10:22:05;15.62;82.50
68801;SHT31;55784;50.734;7.086;2022-10-31T10:24:38;15.60;82.50
68801;SHT31;55784;50.734;7.086;2022-10-31T10:27:16;15.63;82.52
68801;SHT31;55784;50.734;7.086;2022-10-31T10:30:04;15.70;82.47
68801;SHT31;55784;50.734;7.086;2022-10-31T10:32:57;15.80;82.07
68801;SHT31;55784;50.734;7.086;2022-10-31T10:35:27;15.91;81.92
68801;SHT31;55784;50.734;7.086;2022-10-31T10:38:02;16.03;81.19
68801;SHT31;55784;50.734;7.086;2022-10-31T10:40:30;16.18;80.93
68801;SHT31;55784;50.734;7.086;2022-10-31T10:51:23;16.78;79.39
68801;SHT31;55784;50.734;7.086;2022-10-31T10:54:10;16.98;79.05
68801;SHT31;55784;50.734;7.086;2022-10-31T10:56:54;17.13;78.39
68801;SHT31;55784;50.734;7.086;2022-10-31T10:59:22;17.30;77.99
68801;SHT31;55784;50.734;7.086;2022-10-31T11:01:50;17.40;77.36
68801;SHT31;55784;50.734;7.086;2022-10-31T11:04:32;17.46;77.33
68801;SHT31;55784;50.734;7.086;2022-10-31T11:07:06;17.49;77.21
68801;SHT31;55784;50.734;7.086;2022-10-31T11:09:33;17.59;76.91
68801;SHT31;55784;50.734;7.086;2022-10-31T11:12:00;17.69;76.27
68801;SHT31;55784;50.734;7.086;2022-10-31T11:14:30;17.63;76.29
68801;SHT31;55784;50.734;7.086;2022-10-31T11:17:19;17.69;76.08
68801;SHT31;55784;50.734;7.086;2022-10-31T11:19:45;17.70;76.35
68801;SHT31;55784;50.734;7.086;2022-10-31T11:22:17;17.66;75.95
68801;SHT31;55784;50.734;7.086;2022-10-31T11:24:43;17.66;76.13
68801;SHT31;55784;50.734;7.086;2022-10-31T11:27:20;17.71;76.08
68801;SHT31;55784;50.734;7.086;2022-10-31T11:29:45;17.83;76.01
68801;SHT31;55784;50.734;7.086;2022-10-31T11:32:24;17.90;75.62
68801;SHT31;55784;50.734;7.086;2022-10-31T11:34:54;17.91;75.68
68801;SHT31;55784;50.734;7.086;2022-10-31T11:37:33;17.88;75.74
68801;SHT31;55784;50.734;7.086;2022-10-31T11:40:05;17.87;75.94
68801;SHT31;55784;50.734;7.086;2022-10-31T11:45:35;17.80;76.06
68801;SHT31;55784;50.734;7.086;2022-10-31T11:51:58;17.93;75.87
68801;SHT31;55784;50.734;7.086;2022-10-31T12:35:50;18.69;71.63
68801;SHT31;55784;50.734;7.086;2022-10-31T12:39:16;18.68;71.75
68801;SHT31;55784;50.734;7.086;2022-10-31T12:51:00;18.77;71.66
68801;SHT31;55784;50.734;7.086;2022-10-31T12:59:06;18.89;71.33
68801;SHT31;55784;50.734;7.086;2022-10-31T13:02:09;18.93;71.12
68801;SHT31;55784;50.734;7.086;2022-10-31T13:04:51;18.97;70.97
68801;SHT31;55784;50.734;7.086;2022-10-31T13:07:28;19.02;70.98
68801;SHT31;55784;50.734;7.086;2022-10-31T13:44:49;19.14;70.70
68801;SHT31;55784;50.734;7.086;2022-10-31T15:26:03;18.22;72.75
68801;SHT31;55784;50.734;7.086;2022-10-31T15:28:30;18.14;73.03
68801;SHT31;55784;50.734;7.086;2022-10-31T15:30:58;18.04;73.20
68801;SHT31;55784;50.734;7.086;2022-10-31T15:33:39;18.04;73.19
68801;SHT31;55784;50.734;7.086;2022-10-31T16:02:20;17.05;75.83
68801;SHT31;55784;50.734;7.086;2022-10-31T16:08:49;16.88;76.60
68801;SHT31;55784;50.734;7.086;2022-10-31T16:11:40;16.82;76.82
68801;SHT31;55784;50.734;7.086;2022-10-31T16:14:23;16.71;77.20
68801;SHT31;55784;50.734;7.086;2022-10-31T16:19:56;16.69;77.39
68801;SHT31;55784;50.734;7.086;2022-10-31T16:22:54;16.72;77.29
68801;SHT31;55784;50.734;7.086;2022-10-31T16:29:42;16.79;77.09
68801;SHT31;55784;50.734;7.086;2022-10-31T16:32:33;16.82;76.93
68801;SHT31;55784;50.734;7.086;2022-10-31T16:35:16;16.85;76.66
68801;SHT31;55784;50.734;7.086;2022-10-31T16:37:42;16.83;77.20
68801;SHT31;55784;50.734;7.086;2022-10-31T16:40:10;16.92;77.84
68801;SHT31;55784;50.734;7.086;2022-10-31T16:42:36;17.02;76.95
68801;SHT31;55784;50.734;7.086;2022-10-31T16:45:01;17.05;76.14
68801;SHT31;55784;50.734;7.086;2022-10-31T16:47:27;16.99;75.96
68801;SHT31;55784;50.734;7.086;2022-10-31T16:49:52;16.99;76.45
68801;SHT31;55784;50.734;7.086;2022-10-31T16:52:18;17.01;76.52
68801;SHT31;55784;50.734;7.086;2022-10-31T16:54:52;16.91;76.41
68801;SHT31;55784;50.734;7.086;2022-10-31T16:57:26;16.81;77.15
68801;SHT31;55784;50.734;7.086;2022-10-31T16:59:52;16.78;77.13
68801;SHT31;55784;50.734;7.086;2022-10-31T17:02:26;16.75;77.00
68801;SHT31;55784;50.734;7.086;2022-10-31T17:04:52;16.67;77.86
68801;SHT31;55784;50.734;7.086;2022-10-31T17:07:17;16.64;77.00
68801;SHT31;55784;50.734;7.086;2022-10-31T17:09:45;16.59;77.41
68801;SHT31;55784;50.734;7.086;2022-10-31T17:12:28;16.52;77.81
68801;SHT31;55784;50.734;7.086;2022-10-31T17:14:54;16.52;77.58
68801;SHT31;55784;50.734;7.086;2022-10-31T17:17:20;16.51;78.27
68801;SHT31;55784;50.734;7.086;2022-10-31T17:19:46;16.55;79.15
68801;SHT31;55784;50.734;7.086;2022-10-31T17:22:12;16.51;77.25
68801;SHT31;55784;50.734;7.086;2022-10-31T17:24:38;16.49;77.08
68801;SHT31;55784;50.734;7.086;2022-10-31T17:27:10;16.40;77.47
68801;SHT31;55784;50.734;7.086;2022-10-31T17:29:35;16.32;77.47
68801;SHT31;55784;50.734;7.086;2022-10-31T17:32:01;16.28;77.63
68801;SHT31;55784;50.734;7.086;2022-10-31T17:34:30;16.22;78.02
68801;SHT31;55784;50.734;7.086;2022-10-31T17:36:55;16.17;78.70
68801;SHT31;55784;50.734;7.086;2022-10-31T17:39:21;16.11;78.53
68801;SHT31;55784;50.734;7.086;2022-10-31T17:41:51;16.00;78.79
68801;SHT31;55784;50.734;7.086;2022-10-31T17:44:17;15.89;79.17
68801;SHT31;55784;50.734;7.086;2022-10-31T17:46:43;15.85;79.23
68801;SHT31;55784;50.734;7.086;2022-10-31T17:49:10;15.82;79.65
68801;SHT31;55784;50.734;7.086;2022-10-31T17:51:36;15.77;79.98
68801;SHT31;55784;50.734;7.086;2022-10-31T17:54:02;15.74;79.97
68801;SHT31;55784;50.734;7.086;2022-10-31T17:56:27;15.71;80.52
68801;SHT31;55784;50.734;7.086;2022-10-31T17:58:53;15.74;80.10
68801;SHT31;55784;50.734;7.086;2022-10-31T18:01:21;15.70;80.22
68801;SHT31;55784;50.734;7.086;2022-10-31T18:03:46;15.69;80.30
68801;SHT31;55784;50.734;7.086;2022-10-31T18:06:11;15.63;80.31
68801;SHT31;55784;50.734;7.086;2022-10-31T18:08:41;15.63;80.64
68801;SHT31;55784;50.734;7.086;2022-10-31T18:11:13;15.53;80.58
68801;SHT31;55784;50.734;7.086;2022-10-31T18:13:39;15.53;81.06
68801;SHT31;55784;50.734;7.086;2022-10-31T18:16:09;15.45;81.23
68801;SHT31;55784;50.734;7.086;2022-10-31T18:18:35;15.43;81.20
68801;SHT31;55784;50.734;7.086;2022-10-31T18:21:00;15.39;81.40
68801;SHT31;55784;50.734;7.086;2022-10-31T18:23:25;15.31;81.70
68801;SHT31;55784;50.734;7.086;2022-10-31T18:25:52;15.35;81.91
68801;SHT31;55784;50.734;7.086;2022-10-31T18:28:18;15.38;82.34
68801;SHT31;55784;50.734;7.086;2022-10-31T18:30:43;15.38;81.55
68801;SHT31;55784;50.734;7.086;2022-10-31T18:33:09;15.36;81.76
68801;SHT31;55784;50.734;7.086;2022-10-31T18:35:36;15.28;81.78
68801;SHT31;55784;50.734;7.086;2022-10-31T18:38:05;15.21;82.22
68801;SHT31;55784;50.734;7.086;2022-10-31T18:40:33;15.14;82.45
68801;SHT31;55784;50.734;7.086;2022-10-31T18:43:05;15.16;82.89
68801;SHT31;55784;50.734;7.086;2022-10-31T18:45:30;15.25;82.15
68801;SHT31;55784;50.734;7.086;2022-10-31T18:48:04;15.36;82.74
68801;SHT31;55784;50.734;7.086;2022-10-31T18:50:30;15.36;81.77
68801;SHT31;55784;50.734;7.086;2022-10-31T18:52:56;15.35;81.61
68801;SHT31;55784;50.734;7.086;2022-10-31T18:55:21;15.36;81.43
68801;SHT31;55784;50.734;7.086;2022-10-31T18:57:47;15.39;81.63
68801;SHT31;55784;50.734;7.086;2022-10-31T19:00:21;15.43;81.22
68801;SHT31;55784;50.734;7.086;2022-10-31T19:03:11;15.49;81.71
68801;SHT31;55784;50.734;7.086;2022-10-31T19:05:55;15.49;81.26
68801;SHT31;55784;50.734;7.086;2022-10-31T19:08:37;15.52;81.15
68801;SHT31;55784;50.734;7.086;2022-10-31T19:11:38;15.52;81.15
68801;SHT31;55784;50.734;7.086;2022-10-31T19:14:19;15.49;81.21
68801;SHT31;55784;50.734;7.086;2022-10-31T19:17:07;15.47;81.26
68801;SHT31;55784;50.734;7.086;2022-10-31T19:19:32;15.43;81.71
68801;SHT31;55784;50.734;7.086;2022-10-31T19:21:58;15.46;81.60
68801;SHT31;55784;50.734;7.086;2022-10-31T19:24:23;15.40;81.61
68801;SHT31;55784;50.734;7.086;2022-10-31T19:26:48;15.40;81.89
68801;SHT31;55784;50.734;7.086;2022-10-31T19:29:14;15.31;82.27
68801;SHT31;55784;50.734;7.086;2022-10-31T19:31:39;15.26;82.91
68801;SHT31;55784;50.734;7.086;2022-10-31T19:34:05;15.22;82.55
68801;SHT31;55784;50.734;7.086;2022-10-31T19:36:30;15.28;82.70
68801;SHT31;55784;50.734;7.086;2022-10-31T19:38:55;15.29;83.13
68801;SHT31;55784;50.734;7.086;2022-10-31T19:41:28;15.28;83.14
68801;SHT31;55784;50.734;7.086;2022-10-31T19:43:54;15.29;82.84
68801;SHT31;55784;50.734;7.086;2022-10-31T19:46:21;15.35;82.87
68801;SHT31;55784;50.734;7.086;2022-10-31T19:48:47;15.35;82.50
68801;SHT31;55784;50.734;7.086;2022-10-31T19:51:18;15.28;82.88
68801;SHT31;55784;50.734;7.086;2022-10-31T19:53:44;15.25;82.99
68801;SHT31;55784;50.734;7.086;2022-10-31T19:56:12;15.25;83.63
68801;SHT31;55784;50.734;7.086;2022-10-31T20:12:17;15.04;83.88
68801;SHT31;55784;50.734;7.086;2022-10-31T20:18:37;15.04;83.79
68801;SHT31;55784;50.734;7.086;2022-10-31T20:21:32;14.99;84.58
68801;SHT31;55784;50.734;7.086;2022-10-31T20:27:55;14.89;84.38
68801;SHT31;55784;50.734;7.086;2022-10-31T20:31:00;14.87;84.48
68801;SHT31;55784;50.734;7.086;2022-10-31T20:45:14;14.68;85.12
68801;SHT31;55784;50.734;7.086;2022-10-31T21:13:49;14.34;86.13
68801;SHT31;55784;50.734;7.086;2022-10-31T21:16:42;14.38;85.65
68801;SHT31;55784;50.734;7.086;2022-10-31T21:55:29;14.67;84.38
68801;SHT31;55784;50.734;7.086;2022-10-31T21:59:07;14.61;84.28
68801;SHT31;55784;50.734;7.086;2022-10-31T22:02:35;14.60;84.33
68801;SHT31;55784;50.734;7.086;2022-10-31T22:05:26;14.65;84.17